Time;durP1;ratioP1;P1;durP2;ratioP2;P2;SDS_P1;SDS_P2;PMS_P1;PMS_P2;Temp;Humidity;BMP_temperature;BMP_pressure;BME280_temperature;BME280_humidity;BME280_pressure;Samples;Min_cycle;Max_cycle;Signal;HPM_P1;HPM_P2
2022/02/06 00:00:17;;;;;;;5.03;2.40;;;;;;;3.05;79.98;98464.84;4187453;28;20388;-71
2022/02/06 00:02:22;;;;;;;6.55;2.50;;;;;;;3.05;81.06;98448.44;4187596;28;20032;-71
2022/02/06 00:04:23;;;;;;;4.68;2.20;;;;;;;2.93;81.20;98448.34;4187445;28;20494;-71
2022/02/06 00:06:23;;;;;;;5.25;2.03;;;;;;;2.91;81.98;98436.97;4187418;28;20044;-71
2022/02/06 00:08:23;;;;;;;3.78;2.10;;;;;;;2.86;82.77;98439.88;4187052;28;20131;-71
2022/02/06 00:10:24;;;;;;;4.03;2.25;;;;;;;2.83;83.37;98432.34;4187098;28;20386;-71
2022/02/06 00:12:24;;;;;;;8.13;2.70;;;;;;;2.78;83.43;98420.44;4187498;28;20220;-71
2022/02/06 00:14:25;;;;;;;4.22;2.20;;;;;;;2.77;84.05;98418.03;4188612;28;20064;-71
2022/02/06 00:16:25;;;;;;;3.65;1.85;;;;;;;2.82;83.34;98420.59;4187041;28;20046;-71
2022/02/06 00:18:25;;;;;;;3.55;1.95;;;;;;;2.81;83.60;98416.25;4187958;28;20073;-71
2022/02/06 00:20:35;;;;;;;30.27;3.17;;;;;;;2.81;82.57;98419.81;4187606;28;20155;-71
2022/02/06 00:22:41;;;;;;;4.90;2.10;;;;;;;2.79;82.77;98424.78;4188195;28;20121;-71
2022/02/06 00:24:53;;;;;;;3.30;1.70;;;;;;;2.84;82.70;98414.81;4187920;28;20507;-71
2022/02/06 00:27:00;;;;;;;3.00;1.90;;;;;;;2.89;82.12;98409.13;4186685;28;20118;-71
2022/02/06 00:31:33;;;;;;;3.92;2.25;;;;;;;2.96;81.48;98412.16;4187887;28;20078;-71
2022/02/06 00:35:51;;;;;;;4.20;2.78;;;;;;;2.96;81.12;98371.16;4187770;28;20040;-71
2022/02/06 00:40:23;;;;;;;4.88;2.13;;;;;;;3.09;79.97;98395.53;4154521;28;20060;-71
2022/02/06 00:42:23;;;;;;;3.63;2.42;;;;;;;3.15;79.55;98377.00;4185490;28;20044;-71
2022/02/06 00:44:23;;;;;;;5.10;2.08;;;;;;;3.16;79.87;98375.88;4187067;28;20561;-71
2022/02/06 00:46:24;;;;;;;7.47;2.67;;;;;;;3.21;79.38;98372.94;4186711;28;20051;-71
2022/02/06 00:48:27;;;;;;;5.90;2.30;;;;;;;3.22;79.63;98369.06;4186366;28;20422;-71
2022/02/06 00:50:28;;;;;;;6.45;2.00;;;;;;;3.24;78.95;98353.16;4187065;28;20056;-71
2022/02/06 00:52:37;;;;;;;3.67;1.90;;;;;;;3.31;78.35;98347.94;4186874;28;20055;-71
2022/02/06 00:54:37;;;;;;;6.00;2.10;;;;;;;3.31;78.13;98341.66;4186813;28;20047;-71
2022/02/06 00:56:39;;;;;;;2.95;2.10;;;;;;;3.32;77.97;98337.81;4186698;28;21391;-71
2022/02/06 00:58:39;;;;;;;4.33;2.40;;;;;;;3.45;77.42;98333.19;4186546;28;20850;-71
2022/02/06 01:00:40;;;;;;;10.95;2.55;;;;;;;3.44;77.30;98337.88;4185450;28;20326;-71
2022/02/06 01:02:40;;;;;;;6.80;2.08;;;;;;;3.49;77.48;98339.59;4188114;28;20290;-71
2022/02/06 01:04:41;;;;;;;5.68;2.35;;;;;;;3.52;77.03;98341.66;4188275;28;20048;-71
2022/02/06 01:06:41;;;;;;;4.55;2.15;;;;;;;3.50;77.11;98328.31;4186733;28;20045;-71
2022/02/06 01:08:42;;;;;;;5.10;1.67;;;;;;;3.53;76.50;98335.06;4186718;28;20041;-71
2022/02/06 01:10:42;;;;;;;4.68;2.00;;;;;;;3.54;76.84;98334.72;4187119;28;20135;-71
2022/02/06 01:12:49;;;;;;;4.03;2.22;;;;;;;3.55;76.65;98341.78;4186766;28;20068;-72
2022/02/06 01:15:05;;;;;;;5.40;1.90;;;;;;;3.60;76.37;98319.69;4186474;28;20102;-71
2022/02/06 01:19:29;;;;;;;4.90;2.40;;;;;;;3.74;75.33;98313.16;4186853;28;20452;-71
2022/02/06 01:23:46;;;;;;;5.07;2.30;;;;;;;3.76;75.44;98316.34;4186606;28;20063;-71
2022/02/06 01:25:55;;;;;;;5.88;2.20;;;;;;;3.78;75.53;98320.34;4186717;28;20070;-71
2022/02/06 01:28:17;;;;;;;4.63;1.75;;;;;;;3.82;75.17;98326.75;4184694;28;20410;-71
2022/02/06 01:30:21;;;;;;;5.13;1.80;;;;;;;3.88;74.84;98317.16;4186531;28;20048;-71
2022/02/06 01:32:27;;;;;;;4.22;2.08;;;;;;;3.76;75.71;98284.31;4186651;28;20093;-71
2022/02/06 01:36:45;;;;;;;3.38;1.83;;;;;;;3.91;74.51;98296.56;4185806;28;20083;-71
2022/02/06 01:41:01;;;;;;;3.72;1.98;;;;;;;3.89;74.81;98296.91;4186824;28;20044;-71
2022/02/06 01:43:07;;;;;;;8.25;2.17;;;;;;;3.86;75.62;98297.56;4186236;28;20045;-71
2022/02/06 01:45:29;;;;;;;4.75;1.92;;;;;;;3.88;74.94;98278.06;4187508;28;20145;-71
2022/02/06 02:01:28;;;;;;;8.73;2.17;;;;;;;3.85;76.62;98265.06;4186054;28;20051;-71
2022/02/06 02:03:43;;;;;;;3.20;1.70;;;;;;;3.85;76.93;98254.09;4186225;28;20044;-71
2022/02/06 02:19:29;;;;;;;4.13;1.63;;;;;;;3.80;78.04;98214.06;4185704;28;20131;-71
2022/02/06 02:28:02;;;;;;;3.70;2.20;;;;;;;3.78;79.50;98199.94;4185082;28;20132;-71
2022/02/06 02:47:52;;;;;;;3.65;1.60;;;;;;;3.58;83.16;98176.19;4188697;28;20128;-71
2022/02/06 02:49:58;;;;;;;2.95;1.52;;;;;;;3.56;83.13;98181.22;4188779;28;20045;-71
2022/02/06 02:52:05;;;;;;;2.75;1.63;;;;;;;3.52;84.15;98156.44;4189308;28;20048;-71
2022/02/06 02:54:10;;;;;;;6.20;1.77;;;;;;;3.51;83.66;98160.34;4188481;28;20049;-71
2022/02/06 03:01:01;;;;;;;2.20;1.50;;;;;;;3.44;84.56;98138.22;4189254;28;20653;-71
2022/02/06 03:03:27;;;;;;;5.32;1.90;;;;;;;3.41;85.41;98127.94;4189112;28;20214;-71
2022/02/06 03:05:25;;;;;;;3.45;1.63;;;;;;;3.42;85.20;98128.75;4188299;28;20048;-71
2022/02/06 03:07:25;;;;;;;2.00;1.60;;;;;;;3.38;85.18;98134.09;4187995;28;20411;-72
2022/02/06 03:09:25;;;;;;;3.20;1.55;;;;;;;3.40;85.55;98128.31;4188491;28;20158;-71
2022/02/06 03:11:26;;;;;;;4.57;2.08;;;;;;;3.36;85.32;98119.97;4188478;28;20207;-71
2022/02/06 03:13:37;;;;;;;2.95;1.80;;;;;;;3.41;86.05;98118.94;4187621;28;20079;-71
2022/02/06 03:17:45;;;;;;;2.60;1.33;;;;;;;3.47;85.32;98095.69;4189354;28;20069;-71
2022/02/06 03:19:53;;;;;;;3.28;1.83;;;;;;;3.43;85.63;98090.13;4188760;28;20053;-71
2022/02/06 03:21:54;;;;;;;5.38;1.63;;;;;;;3.47;85.25;98088.28;4188592;28;20503;-71
2022/02/06 03:23:58;;;;;;;3.25;1.50;;;;;;;3.50;84.14;98078.63;4188461;28;20040;-71
2022/02/06 03:25:58;;;;;;;3.67;1.30;;;;;;;3.55;84.73;98070.97;4188722;28;20477;-71
2022/02/06 03:27:59;;;;;;;3.45;1.50;;;;;;;3.58;83.70;98072.25;4187560;28;20148;-71
2022/02/06 03:29:59;;;;;;;3.70;1.50;;;;;;;3.56;84.61;98082.72;4188109;28;20044;-71
2022/02/06 03:32:00;;;;;;;1.38;1.27;;;;;;;3.60;83.73;98056.28;4188432;28;20048;-71
2022/02/06 03:34:00;;;;;;;4.22;1.40;;;;;;;3.60;84.01;98068.00;4188144;28;20090;-71
2022/02/06 03:36:00;;;;;;;1.63;1.25;;;;;;;3.61;83.22;98075.06;4188601;28;20105;-71
2022/02/06 03:38:00;;;;;;;2.08;1.60;;;;;;;3.69;82.83;98069.84;4185913;28;20609;-71
2022/02/06 03:40:05;;;;;;;2.92;1.70;;;;;;;3.70;82.71;98069.50;4188037;28;20039;-71
2022/02/06 03:42:13;;;;;;;2.05;1.45;;;;;;;3.75;83.00;98065.75;4188207;28;20252;-71
2022/02/06 03:44:30;;;;;;;2.47;1.40;;;;;;;3.77;81.57;98066.97;4188466;28;20025;-71
2022/02/06 03:46:40;;;;;;;4.43;1.50;;;;;;;3.81;82.03;98059.69;4187767;28;20508;-71
2022/02/06 03:48:48;;;;;;;5.63;1.52;;;;;;;3.80;82.33;98057.28;4188356;28;20330;-71
2022/02/06 03:50:54;;;;;;;2.35;1.38;;;;;;;3.91;80.93;98050.22;4186054;28;20106;-71
2022/02/06 03:52:54;;;;;;;2.53;1.42;;;;;;;4.02;80.31;98051.31;4188703;28;20546;-71
2022/02/06 03:54:55;;;;;;;2.45;1.35;;;;;;;4.04;80.52;98059.97;4189552;28;20052;-71
2022/02/06 03:56:56;;;;;;;2.10;1.40;;;;;;;3.97;81.02;98050.75;4187567;28;20044;-71
2022/02/06 03:58:58;;;;;;;2.33;1.30;;;;;;;3.92;81.59;98051.81;4187877;28;20465;-71
2022/02/06 04:00:58;;;;;;;3.60;1.38;;;;;;;3.93;81.63;98043.25;4187851;28;20456;-71
2022/02/06 04:02:59;;;;;;;3.92;1.60;;;;;;;3.91;81.81;98045.53;4188312;28;20063;-71
2022/02/06 04:04:59;;;;;;;1.67;1.30;;;;;;;3.93;81.12;98032.28;4187927;28;20057;-71
2022/02/06 04:07:06;;;;;;;4.78;1.70;;;;;;;4.05;80.58;98030.66;4187270;28;20037;-71
2022/02/06 04:09:13;;;;;;;3.80;1.30;;;;;;;4.03;80.80;98031.03;4187432;28;20539;-71
2022/02/06 04:11:21;;;;;;;2.78;1.20;;;;;;;4.09;80.20;98037.84;4188039;28;20326;-71
2022/02/06 04:13:24;;;;;;;2.28;1.55;;;;;;;4.07;80.40;98067.53;4187840;28;20078;-71
2022/02/06 04:15:28;;;;;;;2.72;1.27;;;;;;;4.16;80.15;98023.59;4187744;28;20044;-71
2022/02/06 04:17:36;;;;;;;2.20;1.38;;;;;;;4.14;79.64;98025.88;4187067;28;20493;-71
2022/02/06 04:19:37;;;;;;;1.70;1.50;;;;;;;4.23;78.98;98032.00;4188060;28;20255;-71
2022/02/06 04:21:37;;;;;;;1.95;1.30;;;;;;;4.27;79.73;98021.16;4187801;28;20051;-71
2022/02/06 04:23:37;;;;;;;3.70;1.33;;;;;;;4.22;79.46;98012.06;4187385;28;20166;-71
2022/02/06 04:25:38;;;;;;;5.95;1.50;;;;;;;4.25;79.71;98004.28;4187307;28;20105;-71
2022/02/06 04:27:38;;;;;;;1.55;1.20;;;;;;;4.18;80.09;97985.69;4186915;28;20461;-71
2022/02/06 04:29:38;;;;;;;3.63;1.55;;;;;;;4.19;80.37;97962.63;4187635;28;20131;-71
2022/02/06 04:31:40;;;;;;;2.85;1.40;;;;;;;4.19;80.16;97987.28;4185660;28;20032;-71
2022/02/06 04:33:41;;;;;;;1.42;1.10;;;;;;;4.25;80.07;97974.16;4187947;28;20143;-71
2022/02/06 04:35:41;;;;;;;2.60;1.48;;;;;;;4.29;79.37;97966.81;4187696;28;20071;-71
2022/02/06 04:37:57;;;;;;;2.10;1.33;;;;;;;4.27;79.55;97977.34;4187264;28;20044;-71
2022/02/06 04:40:08;;;;;;;3.92;1.63;;;;;;;4.35;79.45;97976.38;4187621;28;20055;-71
2022/02/06 04:44:43;;;;;;;2.33;1.33;;;;;;;4.36;78.93;97986.97;4187964;28;20047;-71
2022/02/06 04:49:30;;;;;;;3.90;1.65;;;;;;;4.39;79.52;97972.63;4187395;28;20068;-71
2022/02/06 05:28:22;;;;;;;2.50;1.58;;;;;;;4.45;78.97;97932.84;4184905;28;20386;-71
2022/02/06 05:30:19;;;;;;;2.20;1.48;;;;;;;4.49;79.01;97950.19;4185384;28;20052;-71
2022/02/06 05:32:35;;;;;;;3.22;1.70;;;;;;;4.54;78.65;97948.31;4186419;28;20046;-71
2022/02/06 05:34:35;;;;;;;4.55;1.88;;;;;;;4.58;79.16;97935.53;4185258;28;20036;-71
2022/02/06 05:36:36;;;;;;;5.05;1.70;;;;;;;4.51;79.35;97925.97;4185159;28;20044;-71
2022/02/06 05:38:37;;;;;;;4.93;1.67;;;;;;;4.53;79.28;97927.56;4186122;28;20057;-71
2022/02/06 05:40:37;;;;;;;2.90;1.73;;;;;;;4.47;79.56;97936.06;4186123;28;20360;-71
2022/02/06 05:42:38;;;;;;;3.53;1.60;;;;;;;4.51;80.05;97914.22;4186183;28;20125;-71
2022/02/06 05:44:41;;;;;;;5.85;1.83;;;;;;;4.53;79.61;97908.38;4185972;28;20056;-71
2022/02/06 05:46:42;;;;;;;;;;;;;;;4.55;79.62;97917.84;4185582;28;20143;-71
2022/02/06 05:48:42;;;;;;;4.55;2.08;;;;;;;4.47;79.95;97910.59;4185151;28;19964;-71
2022/02/06 05:50:43;;;;;;;3.47;1.85;;;;;;;4.44;81.24;97912.06;4186792;28;20091;-71
2022/02/06 05:52:44;;;;;;;4.55;1.70;;;;;;;4.44;81.93;97906.59;4187101;28;20036;-71
2022/02/06 05:54:44;;;;;;;3.83;1.88;;;;;;;4.45;81.75;97902.72;4186991;28;20336;-71
2022/02/06 05:56:44;;;;;;;5.95;1.90;;;;;;;4.47;82.26;97919.63;4186822;28;20059;-71
2022/02/06 05:58:45;;;;;;;2.55;1.83;;;;;;;4.42;82.31;97897.16;4186116;28;20333;-71
2022/02/06 06:00:46;;;;;;;2.95;1.65;;;;;;;4.37;82.76;97903.66;4184820;28;20056;-71
2022/02/06 06:02:46;;;;;;;5.93;1.55;;;;;;;4.43;83.03;97904.22;4187271;28;20787;-71
2022/02/06 06:04:46;;;;;;;2.60;1.63;;;;;;;4.31;83.74;97891.41;4184571;28;20432;-71
2022/02/06 06:06:47;;;;;;;3.33;1.80;;;;;;;4.32;84.28;97893.00;4185917;28;20567;-71
2022/02/06 06:08:47;;;;;;;4.25;1.70;;;;;;;4.27;83.98;97884.22;4186765;28;20051;-71
2022/02/06 06:10:47;;;;;;;5.88;2.13;;;;;;;4.21;84.56;97884.47;4186235;28;20458;-71
2022/02/06 06:12:48;;;;;;;3.40;1.52;;;;;;;4.20;84.79;97871.13;4186297;28;20131;-71
2022/02/06 06:14:48;;;;;;;5.03;1.80;;;;;;;4.17;85.70;97869.91;4185983;28;20507;-71
2022/02/06 06:16:49;;;;;;;4.90;1.50;;;;;;;4.15;85.03;97864.00;4185498;28;20455;-71
2022/02/06 06:18:49;;;;;;;3.63;1.60;;;;;;;4.18;84.31;97862.47;4186084;28;20503;-71
2022/02/06 06:20:51;;;;;;;6.07;2.22;;;;;;;4.26;84.99;97869.75;4186444;28;20046;-71
2022/02/06 06:22:53;;;;;;;5.95;2.00;;;;;;;4.21;85.82;97856.28;4186688;28;20377;-71
2022/02/06 06:24:56;;;;;;;3.53;1.55;;;;;;;4.21;85.93;97864.50;4186102;28;20052;-71
2022/02/06 06:26:57;;;;;;;2.08;1.38;;;;;;;4.17;85.34;97861.69;4185209;28;20044;-71
2022/02/06 06:28:57;;;;;;;4.32;1.60;;;;;;;4.21;85.73;97845.34;4186065;28;20041;-71
2022/02/06 06:30:58;;;;;;;2.05;1.30;;;;;;;4.19;85.87;97861.34;4186240;28;20045;-71
2022/02/06 06:32:58;;;;;;;4.00;1.50;;;;;;;4.17;86.17;97856.22;4185688;28;20047;-71
2022/02/06 06:35:00;;;;;;;4.15;1.92;;;;;;;4.17;85.89;97836.25;4186252;28;20468;-71
2022/02/06 06:37:00;;;;;;;1.83;1.52;;;;;;;4.16;85.35;97838.19;4185322;28;20087;-71
2022/02/06 06:39:04;;;;;;;4.85;1.75;;;;;;;4.14;86.39;97840.50;4185702;28;20108;-71
2022/02/06 06:41:05;;;;;;;4.57;1.60;;;;;;;4.17;85.15;97839.00;4185712;28;20060;-71
2022/02/06 06:43:05;;;;;;;3.80;1.65;;;;;;;4.20;85.64;97854.69;4185809;28;20050;-71
2022/02/06 06:45:06;;;;;;;4.25;1.50;;;;;;;4.17;85.64;97849.94;4186026;28;20064;-71
2022/02/06 06:47:07;;;;;;;2.10;1.30;;;;;;;4.19;85.96;97831.22;4184962;28;20064;-71
2022/02/06 06:49:08;;;;;;;1.70;1.55;;;;;;;4.21;85.13;97823.44;4186147;28;20485;-71
2022/02/06 06:51:11;;;;;;;3.17;1.48;;;;;;;4.23;85.32;97811.00;4185690;28;20048;-71
2022/02/06 06:53:12;;;;;;;1.73;1.40;;;;;;;4.21;85.71;97834.38;4186118;28;20041;-71
2022/02/06 06:55:17;;;;;;;2.22;1.60;;;;;;;4.21;85.67;97813.28;4185726;28;20048;-71
2022/02/06 06:57:22;;;;;;;3.15;1.60;;;;;;;4.25;85.83;97824.34;4184951;28;20074;-71
2022/02/06 06:59:42;;;;;;;2.22;1.60;;;;;;;4.21;85.41;97823.44;4185658;28;20071;-71
2022/02/06 07:01:47;;;;;;;3.30;1.50;;;;;;;4.25;85.81;97807.91;4185357;28;20067;-71
2022/02/06 07:03:47;;;;;;;3.03;1.58;;;;;;;4.30;84.12;97812.31;4185992;28;20102;-71
2022/02/06 07:05:48;;;;;;;3.33;1.33;;;;;;;4.27;84.44;97807.56;4186041;28;20048;-71
2022/02/06 07:07:48;;;;;;;2.92;1.25;;;;;;;4.28;84.46;97803.66;4185035;28;20048;-71
2022/02/06 07:09:48;;;;;;;3.00;1.20;;;;;;;4.39;83.70;97799.25;4185768;28;20037;-71
2022/02/06 07:11:49;;;;;;;3.30;1.60;;;;;;;4.29;85.02;97791.56;4185890;28;20230;-71
2022/02/06 07:13:49;;;;;;;2.35;1.60;;;;;;;4.36;83.79;97802.69;4184914;28;20535;-71
2022/02/06 07:15:52;;;;;;;1.60;1.20;;;;;;;4.39;83.83;97804.75;4185513;28;20048;-71
2022/02/06 07:17:52;;;;;;;2.28;1.45;;;;;;;4.34;84.32;97792.09;4185089;28;20040;-71
2022/02/06 07:19:52;;;;;;;2.35;1.25;;;;;;;4.27;85.05;97797.38;4185786;28;20576;-71
2022/02/06 07:21:53;;;;;;;1.40;1.20;;;;;;;4.25;85.29;97798.91;4185624;28;20045;-71
2022/02/06 07:23:53;;;;;;;2.35;0.98;;;;;;;4.30;86.08;97793.94;4185718;28;20045;-71
2022/02/06 07:25:59;;;;;;;2.78;1.33;;;;;;;4.27;85.66;97800.13;4186342;28;20048;-71
2022/02/06 07:27:59;;;;;;;5.63;1.75;;;;;;;4.30;85.50;97801.34;4187084;28;20428;-71
2022/02/06 07:30:04;;;;;;;3.40;1.33;;;;;;;4.30;85.48;97776.72;4188616;28;20051;-71
2022/02/06 07:32:05;;;;;;;2.28;1.38;;;;;;;4.33;85.67;97785.03;4187793;28;20051;-71
2022/02/06 07:34:05;;;;;;;1.33;1.23;;;;;;;4.38;85.61;97795.69;4188703;28;20278;-72
2022/02/06 07:36:05;;;;;;;1.77;1.58;;;;;;;4.30;87.00;97787.66;4188380;28;20135;-71
2022/02/06 07:38:07;;;;;;;2.50;1.40;;;;;;;4.27;87.03;97791.91;4187638;28;20040;-71
2022/02/06 07:40:08;;;;;;;2.92;1.50;;;;;;;4.29;87.15;97789.59;4188310;28;20036;-71
2022/02/06 07:42:11;;;;;;;1.83;1.25;;;;;;;4.23;87.97;97799.25;4188923;28;20036;-71
2022/02/06 07:44:13;;;;;;;3.55;1.10;;;;;;;4.32;86.76;97779.91;4188458;28;20130;-71
2022/02/06 07:46:18;;;;;;;1.77;1.30;;;;;;;4.33;86.63;97782.28;4187867;28;20544;-71
2022/02/06 07:48:19;;;;;;;2.70;1.40;;;;;;;4.30;87.27;97773.97;4187953;28;20464;-71
2022/02/06 07:50:19;;;;;;;3.28;1.33;;;;;;;4.30;87.49;97763.00;4188288;28;20055;-71
2022/02/06 07:52:21;;;;;;;2.42;1.90;;;;;;;4.26;86.63;97760.19;4188316;28;20708;-71
2022/02/06 07:54:22;;;;;;;2.65;1.40;;;;;;;4.36;86.28;97754.19;4188306;28;20047;-71
2022/02/06 07:56:22;;;;;;;2.42;1.20;;;;;;;4.40;86.01;97765.25;4187958;28;20462;-71
2022/02/06 07:58:22;;;;;;;1.90;1.48;;;;;;;4.41;86.26;97753.13;4187635;28;20040;-71
2022/02/06 08:00:23;;;;;;;1.55;1.17;;;;;;;4.42;86.46;97761.00;4187446;28;20080;-71
2022/02/06 08:02:23;;;;;;;1.40;1.13;;;;;;;4.39;86.61;97737.06;4187772;28;20139;-71
2022/02/06 08:04:24;;;;;;;2.28;1.13;;;;;;;4.37;87.15;97747.56;4188511;28;20799;-71
2022/02/06 08:06:24;;;;;;;2.22;1.30;;;;;;;4.35;88.19;97752.59;4188127;28;20048;-71
2022/02/06 08:08:25;;;;;;;1.55;1.13;;;;;;;4.39;87.21;97728.06;4187486;28;20499;-71
2022/02/06 08:10:26;;;;;;;2.08;1.38;;;;;;;4.42;87.14;97705.41;4187822;28;20040;-71
2022/02/06 08:12:30;;;;;;;4.57;1.10;;;;;;;4.46;86.29;97703.53;4188214;28;20041;-71
2022/02/06 08:14:51;;;;;;;3.42;1.20;;;;;;;4.47;87.10;97707.91;4186790;28;20083;-71
2022/02/06 08:16:51;;;;;;;5.43;1.55;;;;;;;4.62;85.59;97703.50;4186659;28;20167;-71
2022/02/06 08:18:51;;;;;;;5.10;1.42;;;;;;;4.68;85.23;97700.13;4187930;28;20072;-71
2022/02/06 08:20:52;;;;;;;2.17;1.20;;;;;;;4.64;86.03;97706.72;4188354;28;20048;-71
2022/02/06 08:22:52;;;;;;;2.10;1.40;;;;;;;4.65;86.10;97713.78;4187866;28;20076;-72
2022/02/06 08:24:53;;;;;;;1.60;1.08;;;;;;;4.68;86.59;97694.66;4187583;28;20041;-71
2022/02/06 08:26:53;;;;;;;3.28;1.13;;;;;;;4.77;84.96;97705.41;4187331;28;20206;-72
2022/02/06 08:28:59;;;;;;;3.08;1.15;;;;;;;4.77;85.82;97692.50;4187499;28;20496;-71
2022/02/06 08:31:02;;;;;;;3.08;1.27;;;;;;;4.89;85.04;97704.50;4187403;28;20051;-71
2022/02/06 08:33:02;;;;;;;;;;;;;;;4.92;85.60;97715.53;4188126;28;20093;-71
2022/02/06 08:35:03;;;;;;;4.55;1.45;;;;;;;5.03;84.60;97710.28;4187401;28;19924;-71
2022/02/06 08:37:04;;;;;;;1.25;1.05;;;;;;;5.01;84.44;97707.91;4186642;28;20143;-71
2022/02/06 08:39:05;;;;;;;2.58;1.10;;;;;;;5.04;84.53;97690.72;4186765;28;20048;-71
2022/02/06 08:41:05;;;;;;;2.38;1.13;;;;;;;5.10;84.85;97698.66;4187813;28;20335;-71
2022/02/06 08:43:06;;;;;;;0.85;0.82;;;;;;;5.09;84.74;97711.59;4187778;28;20048;-71
2022/02/06 08:45:06;;;;;;;1.15;0.95;;;;;;;5.10;85.32;97693.97;4187075;28;20488;-71
2022/02/06 08:47:09;;;;;;;1.55;0.95;;;;;;;5.10;84.29;97688.47;4186576;28;20322;-71
2022/02/06 08:49:09;;;;;;;1.52;1.17;;;;;;;5.10;83.92;97676.72;4186956;28;20118;-71
2022/02/06 08:51:09;;;;;;;1.65;1.50;;;;;;;5.06;84.41;97674.72;4187796;28;20451;-71
2022/02/06 08:53:10;;;;;;;3.55;1.52;;;;;;;5.18;83.52;97689.41;4187138;28;20472;-71
2022/02/06 08:55:12;;;;;;;3.95;1.38;;;;;;;5.17;82.43;97685.09;4187174;28;20044;-71
2022/02/06 08:57:22;;;;;;;1.08;0.90;;;;;;;5.22;82.53;97690.31;4186716;28;20408;-71
2022/02/06 08:59:22;;;;;;;1.38;0.93;;;;;;;5.26;82.09;97685.66;4186655;28;20052;-71
2022/02/06 09:01:23;;;;;;;1.25;1.10;;;;;;;5.23;82.44;97687.19;4187385;28;20436;-71
2022/02/06 09:03:23;;;;;;;5.43;2.42;;;;;;;5.20;82.64;97685.16;4187119;28;20041;-71
2022/02/06 09:05:25;;;;;;;1.67;1.10;;;;;;;5.19;83.79;97682.78;4187237;28;20055;-71
2022/02/06 09:07:25;;;;;;;3.35;1.15;;;;;;;5.12;84.27;97694.41;4186097;28;20316;-71
2022/02/06 09:09:27;;;;;;;1.60;0.98;;;;;;;5.13;84.08;97684.22;4186687;28;20059;-71
2022/02/06 09:11:29;;;;;;;1.40;1.27;;;;;;;5.11;84.67;97675.56;4187176;28;20076;-71
2022/02/06 09:13:30;;;;;;;1.10;1.00;;;;;;;5.16;83.03;97661.56;4186561;28;20422;-71
2022/02/06 09:15:31;;;;;;;2.65;1.50;;;;;;;5.15;83.52;97662.75;4187456;28;20631;-71
2022/02/06 09:17:31;;;;;;;1.52;0.93;;;;;;;5.22;82.42;97662.88;4186062;28;20090;-71
2022/02/06 09:19:34;;;;;;;2.17;1.20;;;;;;;5.15;83.36;97651.75;4186758;28;20048;-71
2022/02/06 09:21:34;;;;;;;1.50;1.20;;;;;;;5.17;82.86;97647.50;4186772;28;20529;-71
2022/02/06 09:23:35;;;;;;;1.02;0.80;;;;;;;5.17;83.34;97635.75;4187223;28;20509;-71
2022/02/06 09:25:35;;;;;;;0.90;0.90;;;;;;;5.16;83.18;97642.38;4187037;28;20063;-71
2022/02/06 09:27:36;;;;;;;2.53;1.77;;;;;;;5.17;82.79;97633.00;4186273;28;20515;-71
2022/02/06 09:29:40;;;;;;;3.50;1.98;;;;;;;5.25;82.23;97660.19;4187161;28;20076;-71
2022/02/06 09:31:42;;;;;;;3.40;1.08;;;;;;;5.24;81.74;97638.63;4187133;28;20060;-72
2022/02/06 09:35:43;;;;;;;1.15;0.90;;;;;;;5.20;82.65;97615.81;4186781;28;20044;-71
2022/02/06 09:37:43;;;;;;;1.70;1.30;;;;;;;5.14;83.56;97620.81;4186098;28;20455;-71
2022/02/06 09:39:43;;;;;;;1.20;1.00;;;;;;;5.25;81.74;97616.31;4186648;28;20619;-71
2022/02/06 09:41:46;;;;;;;2.03;1.05;;;;;;;5.19;83.36;97606.00;4186503;28;20259;-71
2022/02/06 09:43:47;;;;;;;1.83;1.10;;;;;;;5.19;83.40;97597.78;4186584;28;20143;-71
2022/02/06 09:45:49;;;;;;;2.25;1.30;;;;;;;5.21;83.06;97599.00;4186952;28;20848;-71
2022/02/06 09:47:49;;;;;;;1.95;1.40;;;;;;;5.18;83.20;97604.41;4186053;28;20048;-71
2022/02/06 09:49:51;;;;;;;1.23;1.05;;;;;;;5.17;83.04;97597.34;4186415;28;20409;-71
2022/02/06 09:51:53;;;;;;;0.90;0.90;;;;;;;5.12;82.17;97597.63;4186633;28;20110;-71
2022/02/06 09:53:54;;;;;;;1.98;1.02;;;;;;;5.14;82.68;97606.31;4186644;28;20055;-71
2022/02/06 09:55:57;;;;;;;1.38;1.00;;;;;;;5.20;81.63;97599.34;4186731;28;20198;-71
2022/02/06 09:58:14;;;;;;;1.20;0.98;;;;;;;5.20;83.28;97594.66;4185910;28;20196;-71
2022/02/06 10:00:15;;;;;;;1.92;1.00;;;;;;;5.23;82.01;97584.94;4186538;28;20076;-71
2022/02/06 10:02:17;;;;;;;1.38;1.00;;;;;;;5.24;82.61;97578.28;4184362;28;20055;-71
2022/02/06 10:04:19;;;;;;;2.00;1.00;;;;;;;5.25;83.18;97586.13;4186355;28;20454;-72
2022/02/06 10:06:21;;;;;;;;;;;;;;;5.18;82.44;97580.53;4186581;28;20117;-71
2022/02/06 10:08:31;;;;;;;1.33;0.90;;;;;;;5.15;83.19;97564.03;4186384;28;20057;-71
2022/02/06 10:10:32;;;;;;;1.00;0.95;;;;;;;5.17;82.36;97570.72;4185934;28;20044;-71
2022/02/06 10:12:36;;;;;;;2.90;1.25;;;;;;;5.13;83.33;97577.28;4186917;28;20040;-71
2022/02/06 10:14:37;;;;;;;3.92;1.00;;;;;;;5.12;82.84;97567.47;4186243;28;20050;-71
2022/02/06 10:16:39;;;;;;;2.38;1.17;;;;;;;5.17;83.13;97562.50;4185498;28;20678;-71
2022/02/06 10:18:41;;;;;;;1.38;1.08;;;;;;;5.17;83.04;97557.00;4186186;28;20071;-71
2022/02/06 10:20:46;;;;;;;3.05;1.20;;;;;;;5.13;83.49;97552.59;4186506;28;20306;-71
2022/02/06 10:22:59;;;;;;;1.27;1.00;;;;;;;5.17;83.39;97558.97;4186011;28;20072;-71
2022/02/06 10:25:05;;;;;;;1.38;0.90;;;;;;;5.11;83.04;97544.75;4186065;28;20048;-71
2022/02/06 10:31:25;;;;;;;3.70;1.77;;;;;;;5.14;83.92;97555.00;4186098;28;20189;-71
2022/02/06 10:33:43;;;;;;;2.70;1.30;;;;;;;5.08;83.01;97532.56;4186391;28;20051;-71
2022/02/06 10:35:55;;;;;;;2.00;1.50;;;;;;;5.09;83.89;97527.88;4185746;28;20496;-71
2022/02/06 10:37:55;;;;;;;3.05;1.40;;;;;;;5.07;84.96;97536.47;4185704;28;20076;-71
2022/02/06 10:39:58;;;;;;;1.17;0.90;;;;;;;5.05;84.29;97521.56;4185799;28;20509;-71
2022/02/06 10:41:58;;;;;;;2.88;1.40;;;;;;;5.03;85.72;97521.09;4186155;28;20040;-72
2022/02/06 10:44:03;;;;;;;1.98;1.45;;;;;;;5.03;86.42;97519.16;4186051;28;20477;-71
2022/02/06 10:46:12;;;;;;;1.13;1.00;;;;;;;5.00;85.19;97519.88;4184509;28;20410;-71
2022/02/06 10:48:22;;;;;;;1.38;1.02;;;;;;;5.00;84.81;97500.69;4185470;28;20103;-71
2022/02/06 10:50:26;;;;;;;1.23;0.93;;;;;;;4.99;83.50;97499.13;4184802;28;20163;-71
2022/02/06 10:52:27;;;;;;;1.92;1.00;;;;;;;4.99;83.46;97488.16;4185958;28;20143;-71
2022/02/06 10:54:27;;;;;;;1.23;0.90;;;;;;;5.03;83.51;97482.72;4185735;28;20127;-71
2022/02/06 10:56:27;;;;;;;2.30;2.10;;;;;;;4.99;84.15;97479.94;4185840;28;20059;-71
2022/02/06 10:58:34;;;;;;;2.35;1.23;;;;;;;5.06;83.25;97476.53;4184955;28;20048;-71
2022/02/06 11:00:36;;;;;;;3.35;1.20;;;;;;;5.08;82.84;97458.53;4185737;28;20477;-71
2022/02/06 11:02:45;;;;;;;;;;;;;;;5.07;83.52;97470.66;4188269;28;20052;-71
2022/02/06 11:05:01;;;;;;;1.80;1.40;;;;;;;5.04;83.97;97449.44;4189715;28;19962;-71
2022/02/06 11:07:19;;;;;;;2.65;1.17;;;;;;;5.06;84.00;97438.94;4188333;28;20052;-71
2022/02/06 11:09:27;;;;;;;1.48;1.33;;;;;;;4.90;85.43;97432.78;4188943;28;20131;-71
2022/02/06 11:11:34;;;;;;;1.10;1.00;;;;;;;4.91;85.33;97430.84;4189063;28;20041;-71
2022/02/06 11:13:36;;;;;;;2.15;1.10;;;;;;;4.84;85.45;97415.06;4188963;28;20397;-71
2022/02/06 11:15:44;;;;;;;1.83;1.27;;;;;;;4.85;86.27;97411.16;4188878;28;20443;-71
2022/02/06 11:18:02;;;;;;;1.25;1.10;;;;;;;4.82;86.21;97408.38;4187695;28;20504;-71
2022/02/06 11:20:08;;;;;;;1.10;1.00;;;;;;;4.79;87.06;97396.16;4188327;28;20052;-71
2022/02/06 11:22:10;;;;;;;1.02;0.82;;;;;;;4.80;86.23;97378.59;4188734;28;20024;-71
2022/02/06 11:24:19;;;;;;;1.42;1.23;;;;;;;4.83;86.92;97377.84;4188300;28;20647;-72
2022/02/06 11:26:27;;;;;;;2.33;1.33;;;;;;;4.76;88.31;97381.25;4188646;28;20063;-71
2022/02/06 11:28:27;;;;;;;1.58;1.10;;;;;;;4.78;87.24;97358.97;4188030;28;20064;-71
2022/02/06 11:30:28;;;;;;;0.90;0.90;;;;;;;4.73;87.74;97353.81;4188967;28;20094;-71
2022/02/06 11:32:28;;;;;;;1.38;0.98;;;;;;;4.77;87.88;97366.41;4188565;28;20135;-71
2022/02/06 11:34:29;;;;;;;2.35;1.13;;;;;;;4.73;88.25;97342.84;4188756;28;20040;-71
2022/02/06 11:44:13;;;;;;;1.23;0.90;;;;;;;4.68;87.64;97335.72;4188230;28;20498;-72
2022/02/06 11:46:22;;;;;;;1.30;1.00;;;;;;;4.66;88.36;97318.06;4187161;28;20515;-71
2022/02/06 11:48:26;;;;;;;1.52;1.20;;;;;;;4.69;89.41;97315.38;4188029;28;20138;-71
2022/02/06 11:50:30;;;;;;;1.48;1.00;;;;;;;4.61;89.64;97315.63;4188716;28;20032;-71
2022/02/06 11:52:54;;;;;;;1.13;1.00;;;;;;;4.64;89.11;97304.75;4187768;28;20508;-71
2022/02/06 11:54:56;;;;;;;1.67;1.27;;;;;;;4.61;88.90;97294.50;4187998;28;20048;-71
2022/02/06 11:57:12;;;;;;;2.33;1.58;;;;;;;4.58;88.71;97299.94;4185121;28;20253;-71